Montbello, Colorado
Current Conditions -  °F | °C
As of 6:58 PM on Tuesday 25 Nov 2014 (Local Time) from KBKF Reporting Station
Broken Clouds Broken Clouds  
Wind Chill: 35°   Ceiling: 22000
Heat Index: 44°   Visibility: 10mi
Dew Point: 20°   Wind: 22mph
Humidity: 38%   Direction: 300°WNW
Pressure: 29.93"   Gusts: 28mph
Location:  39.7897°N, 104.858°W
Report Text: KBKF 260158Z 30019G24KT 10SM FEW060 SCT120 BKN220 07/M07 A2993 RMK AO2A PK WND 28028/02 SLP130 T00671068
Loading
Personal Weather Stations






























Interactive Weather Map New forecast layout! Learn more

10-Day Weather Forecast

Advertisements
Track Severe Weather on mobile